Chicago Bridge — H9NR — position and weather

sailwx.info

Track history (hours):
 
Tides and Currents Weather Stations Pressure Air Temp Water Temp Dewpoint Dewpoint Depression Visibility Wind Speed Wind Dir Waves Ship Positions

Chicago Bridge

Last reported at 2016-Jul-05 20:12 UTC. Time now 2016-Sep-25 15:47 UTC.
Position N 36°35' E 123°18'.
Warning: this ship's position is months out of date.

Length 279 m; draft 8.6 m.

Type: Ship (hazmat cat B). MMSI: 352018000.

Date/timePositionNaut miles runAvg speedWind from/ knotsBaromVisibWave heightAir tempDewpointWater temp
2016-Jul-05 20:12N 36°35' E 123°18'12412.9
2016-Jul-05 10:33N 38°13' E 121°42'3415.6
2016-Jul-05 08:22N 38°29' E 121°04'14514.2
2016-Jul-04 22:13N 38°56' E 118°02'811.5
2016-Jul-04 21:33N 38°57' E 117°52'4 3.6
2016-Jul-04 20:27N 38°58' E 117°47'0 0.0
2016-Jul-04 19:15N 38°58' E 117°47'0 0.0
2016-Jul-04 18:27N 38°58' E 117°47'0 0.0
2016-Jul-04 14:09N 38°58' E 117°47'0 0.0
2016-Jul-04 13:33N 38°58' E 117°47'0 0.0
2016-Jul-04 12:33N 38°58' E 117°47'0 0.0
2016-Jul-04 11:33N 38°58' E 117°47'0 0.0
2016-Jul-04 10:33N 38°58' E 117°47'0 0.0
2016-Jul-04 09:33N 38°58' E 117°47'0 0.0
2016-Jul-04 03:21N 38°58' E 117°47'0 0.2
2016-Jul-04 02:33N 38°58' E 117°47'1110.0
2016-Jul-04 01:30N 38°56' E 118°00'5911.0
2016-Jul-03 20:09N 38°48' E 119°15'1112.7
2016-Jul-03 19:18N 38°46' E 119°28'912.7
2016-Jul-03 18:34N 38°44' E 119°40'1312.8
2016-Jul-03 17:33N 38°41' E 119°56'1312.9
2016-Jul-03 16:33N 38°39' E 120°13'1313.0
2016-Jul-03 15:33N 38°39' E 120°29'1512.9
2016-Jul-03 14:24N 38°38' E 120°48'1112.7
2016-Jul-03 13:34N 38°33' E 121°01'1413.6
2016-Jul-03 12:33N 38°27' E 121°16'1313.2
2016-Jul-03 11:33N 38°21' E 121°31'1413.7
2016-Jul-03 10:33N 38°15' E 121°47'1413.9
2016-Jul-03 09:33N 38°09' E 122°03'3014.5
2016-Jul-03 07:31N 37°56' E 122°37'1515.3
2016-Jul-03 06:33N 37°50' E 122°53'2914.3
2016-Jul-03 04:33N 37°28' E 123°18'1514.1
2016-Jul-03 03:31N 37°16' E 123°27'1314.0
2016-Jul-03 02:34N 37°05' E 123°36'1414.0
2016-Jul-03 01:33N 36°53' E 123°45'1414.2
2016-Jul-03 00:33N 36°40' E 123°54'1514.0
2016-Jul-02 23:28N 36°25' E 123°55'1814.4
2016-Jul-02 22:15N 36°07' E 123°56'1114.6
2016-Jul-02 21:32N 35°57' E 123°56'  
2016-Jun-30 14:33N 22°48' E 119°52'1515.0
2016-Jun-30 13:33N 22°33' E 119°52'  
2016-Jun-26 01:10N 01°15' E 104°04'915.1
2016-Jun-26 00:33N 01°12' E 103°55'9 9.2
2016-Jun-25 23:33N 01°16' E 103°46'0 0.3
2016-Jun-25 22:30N 01°17' E 103°47'0 0.0
2016-Jun-25 21:33N 01°17' E 103°47'0 0.0
2016-Jun-25 20:33N 01°17' E 103°47'  
Track history (hours):
 
Tides and Currents Weather Stations Pressure Air Temp Water Temp Dewpoint Dewpoint Depression Visibility Wind Speed Wind Dir Waves Ship Positions

Chicago Bridge

Last reported at 2016-Jul-05 20:12 UTC. Time now 2016-Sep-25 15:48 UTC.
Position N 36°35' E 123°18'.
Warning: this ship's position is months out of date.

Length 279 m; draft 8.6 m.

Type: Ship (hazmat cat B). MMSI: 352018000.

Date/timePositionNaut miles runAvg speedWind from/ knotsBaromVisibWave heightAir tempDewpointWater temp
2016-Jul-05 20:12N 36°35' E 123°18'12412.9
2016-Jul-05 10:33N 38°13' E 121°42'3415.6
2016-Jul-05 08:22N 38°29' E 121°04'14514.2
2016-Jul-04 22:13N 38°56' E 118°02'811.5
2016-Jul-04 21:33N 38°57' E 117°52'4 3.6
2016-Jul-04 20:27N 38°58' E 117°47'0 0.0
2016-Jul-04 19:15N 38°58' E 117°47'0 0.0
2016-Jul-04 18:27N 38°58' E 117°47'0 0.0
2016-Jul-04 14:09N 38°58' E 117°47'0 0.0
2016-Jul-04 13:33N 38°58' E 117°47'0 0.0
2016-Jul-04 12:33N 38°58' E 117°47'0 0.0
2016-Jul-04 11:33N 38°58' E 117°47'0 0.0
2016-Jul-04 10:33N 38°58' E 117°47'0 0.0
2016-Jul-04 09:33N 38°58' E 117°47'0 0.0
2016-Jul-04 03:21N 38°58' E 117°47'0 0.2
2016-Jul-04 02:33N 38°58' E 117°47'1110.0
2016-Jul-04 01:30N 38°56' E 118°00'5911.0
2016-Jul-03 20:09N 38°48' E 119°15'1112.7
2016-Jul-03 19:18N 38°46' E 119°28'912.7
2016-Jul-03 18:34N 38°44' E 119°40'1312.8
2016-Jul-03 17:33N 38°41' E 119°56'1312.9
2016-Jul-03 16:33N 38°39' E 120°13'1313.0
2016-Jul-03 15:33N 38°39' E 120°29'1512.9
2016-Jul-03 14:24N 38°38' E 120°48'1112.7
2016-Jul-03 13:34N 38°33' E 121°01'1413.6
2016-Jul-03 12:33N 38°27' E 121°16'1313.2
2016-Jul-03 11:33N 38°21' E 121°31'1413.7
2016-Jul-03 10:33N 38°15' E 121°47'1413.9
2016-Jul-03 09:33N 38°09' E 122°03'3014.5
2016-Jul-03 07:31N 37°56' E 122°37'1515.3
2016-Jul-03 06:33N 37°50' E 122°53'2914.3
2016-Jul-03 04:33N 37°28' E 123°18'1514.1
2016-Jul-03 03:31N 37°16' E 123°27'1314.0
2016-Jul-03 02:34N 37°05' E 123°36'1414.0
2016-Jul-03 01:33N 36°53' E 123°45'1414.2
2016-Jul-03 00:33N 36°40' E 123°54'1514.0
2016-Jul-02 23:28N 36°25' E 123°55'1814.4
2016-Jul-02 22:15N 36°07' E 123°56'1114.6
2016-Jul-02 21:32N 35°57' E 123°56'  
2016-Jun-30 14:33N 22°48' E 119°52'1515.0
2016-Jun-30 13:33N 22°33' E 119°52'  
2016-Jun-26 01:10N 01°15' E 104°04'915.1
2016-Jun-26 00:33N 01°12' E 103°55'9 9.2
2016-Jun-25 23:33N 01°16' E 103°46'0 0.3
2016-Jun-25 22:30N 01°17' E 103°47'0 0.0
2016-Jun-25 21:33N 01°17' E 103°47'0 0.0
2016-Jun-25 20:33N 01°17' E 103°47'  

Dump ship's entire track history